sensor_id;sensor_type;location;lat;lon;timestamp;temperature;humidity
75899;DHT22;64576;50.460;4.866;2024-03-07T00:01:47;3.69;99.99
75899;DHT22;64576;50.460;4.866;2024-03-07T00:04:13;4.10;99.99
75899;DHT22;64576;50.460;4.866;2024-03-07T00:06:38;4.14;99.99
75899;DHT22;64576;50.460;4.866;2024-03-07T00:09:03;4.18;99.99
75899;DHT22;64576;50.460;4.866;2024-03-07T00:11:29;4.37;99.99
75899;DHT22;64576;50.460;4.866;2024-03-07T00:13:55;3.76;99.99
75899;DHT22;64576;50.460;4.866;2024-03-07T00:16:21;3.55;99.99
75899;DHT22;64576;50.460;4.866;2024-03-07T00:18:46;3.24;99.99
75899;DHT22;64576;50.460;4.866;2024-03-07T00:21:11;2.89;99.99
75899;DHT22;64576;50.460;4.866;2024-03-07T00:23:37;2.84;99.99
75899;DHT22;64576;50.460;4.866;2024-03-07T00:26:03;2.83;99.99
75899;DHT22;64576;50.460;4.866;2024-03-07T00:28:29;2.72;99.99
75899;DHT22;64576;50.460;4.866;2024-03-07T00:30:58;2.50;99.99
75899;DHT22;64576;50.460;4.866;2024-03-07T00:33:23;2.46;99.99
75899;DHT22;64576;50.460;4.866;2024-03-07T00:35:50;2.45;99.99
75899;DHT22;64576;50.460;4.866;2024-03-07T00:38:15;2.27;99.99
75899;DHT22;64576;50.460;4.866;2024-03-07T00:40:41;2.49;99.99
75899;DHT22;64576;50.460;4.866;2024-03-07T00:43:07;2.75;99.99
75899;DHT22;64576;50.460;4.866;2024-03-07T00:45:32;2.72;99.99
75899;DHT22;64576;50.460;4.866;2024-03-07T00:47:58;2.36;99.99
75899;DHT22;64576;50.460;4.866;2024-03-07T00:50:24;2.29;99.99
75899;DHT22;64576;50.460;4.866;2024-03-07T00:52:50;2.84;99.99
75899;DHT22;64576;50.460;4.866;2024-03-07T00:55:15;2.83;99.99
75899;DHT22;64576;50.460;4.866;2024-03-07T00:57:41;2.82;99.99
75899;DHT22;64576;50.460;4.866;2024-03-07T01:00:07;3.18;99.99
75899;DHT22;64576;50.460;4.866;2024-03-07T01:02:40;3.39;99.99
75899;DHT22;64576;50.460;4.866;2024-03-07T01:05:09;3.70;99.99
75899;DHT22;64576;50.460;4.866;2024-03-07T01:07:35;3.90;99.99
75899;DHT22;64576;50.460;4.866;2024-03-07T01:10:03;3.60;99.99
75899;DHT22;64576;50.460;4.866;2024-03-07T01:12:31;3.22;99.99
75899;DHT22;64576;50.460;4.866;2024-03-07T01:14:56;2.99;99.99
75899;DHT22;64576;50.460;4.866;2024-03-07T01:17:26;3.30;99.99
75899;DHT22;64576;50.460;4.866;2024-03-07T01:19:51;3.48;99.99
75899;DHT22;64576;50.460;4.866;2024-03-07T01:22:17;3.66;99.99
75899;DHT22;64576;50.460;4.866;2024-03-07T01:24:42;3.21;99.99
75899;DHT22;64576;50.460;4.866;2024-03-07T01:27:08;3.01;99.99
75899;DHT22;64576;50.460;4.866;2024-03-07T01:29:34;3.31;99.99
75899;DHT22;64576;50.460;4.866;2024-03-07T01:32:00;3.21;99.99
75899;DHT22;64576;50.460;4.866;2024-03-07T01:34:25;3.43;99.99
75899;DHT22;64576;50.460;4.866;2024-03-07T01:36:50;3.59;99.99
75899;DHT22;64576;50.460;4.866;2024-03-07T01:39:16;3.66;99.99
75899;DHT22;64576;50.460;4.866;2024-03-07T01:41:41;3.65;99.99
75899;DHT22;64576;50.460;4.866;2024-03-07T01:44:06;3.45;99.99
75899;DHT22;64576;50.460;4.866;2024-03-07T01:46:32;3.39;99.99
75899;DHT22;64576;50.460;4.866;2024-03-07T01:48:58;3.38;99.99
75899;DHT22;64576;50.460;4.866;2024-03-07T01:51:24;3.41;99.99
75899;DHT22;64576;50.460;4.866;2024-03-07T01:53:51;3.32;99.99
75899;DHT22;64576;50.460;4.866;2024-03-07T01:56:17;3.52;99.99
75899;DHT22;64576;50.460;4.866;2024-03-07T01:58:48;3.43;99.99
75899;DHT22;64576;50.460;4.866;2024-03-07T02:01:14;3.36;99.99
75899;DHT22;64576;50.460;4.866;2024-03-07T02:03:40;3.28;99.99
75899;DHT22;64576;50.460;4.866;2024-03-07T02:06:06;3.07;99.99
75899;DHT22;64576;50.460;4.866;2024-03-07T02:08:32;2.94;99.99
75899;DHT22;64576;50.460;4.866;2024-03-07T02:10:58;3.17;99.99
75899;DHT22;64576;50.460;4.866;2024-03-07T02:13:23;3.04;99.99
75899;DHT22;64576;50.460;4.866;2024-03-07T02:15:49;2.93;99.99
75899;DHT22;64576;50.460;4.866;2024-03-07T02:18:14;2.99;99.99
75899;DHT22;64576;50.460;4.866;2024-03-07T02:20:46;2.99;99.99
75899;DHT22;64576;50.460;4.866;2024-03-07T02:23:12;2.89;99.99
75899;DHT22;64576;50.460;4.866;2024-03-07T02:25:38;3.52;99.99
75899;DHT22;64576;50.460;4.866;2024-03-07T02:28:06;3.70;99.99
75899;DHT22;64576;50.460;4.866;2024-03-07T02:30:33;3.75;99.99
75899;DHT22;64576;50.460;4.866;2024-03-07T02:32:59;3.73;99.99
75899;DHT22;64576;50.460;4.866;2024-03-07T02:35:34;3.65;99.99
75899;DHT22;64576;50.460;4.866;2024-03-07T02:38:03;3.52;99.99
75899;DHT22;64576;50.460;4.866;2024-03-07T02:40:29;3.75;99.99
75899;DHT22;64576;50.460;4.866;2024-03-07T02:42:54;3.83;99.99
75899;DHT22;64576;50.460;4.866;2024-03-07T02:45:20;3.85;99.99
75899;DHT22;64576;50.460;4.866;2024-03-07T02:47:46;3.82;99.99
75899;DHT22;64576;50.460;4.866;2024-03-07T02:50:11;3.68;99.99
75899;DHT22;64576;50.460;4.866;2024-03-07T02:52:37;3.52;99.99
75899;DHT22;64576;50.460;4.866;2024-03-07T02:55:02;3.62;99.99
75899;DHT22;64576;50.460;4.866;2024-03-07T02:57:31;3.66;99.99
75899;DHT22;64576;50.460;4.866;2024-03-07T02:59:56;3.46;99.99
75899;DHT22;64576;50.460;4.866;2024-03-07T03:02:22;3.15;99.99
75899;DHT22;64576;50.460;4.866;2024-03-07T03:04:47;2.82;99.99
75899;DHT22;64576;50.460;4.866;2024-03-07T03:07:13;2.65;99.99
75899;DHT22;64576;50.460;4.866;2024-03-07T03:09:38;2.84;99.99
75899;DHT22;64576;50.460;4.866;2024-03-07T03:12:09;3.21;99.99
75899;DHT22;64576;50.460;4.866;2024-03-07T03:14:34;3.49;99.99
75899;DHT22;64576;50.460;4.866;2024-03-07T03:17:00;3.42;99.99
75899;DHT22;64576;50.460;4.866;2024-03-07T03:19:25;3.45;99.99
75899;DHT22;64576;50.460;4.866;2024-03-07T03:21:51;3.38;99.99
75899;DHT22;64576;50.460;4.866;2024-03-07T03:24:17;3.12;99.99
75899;DHT22;64576;50.460;4.866;2024-03-07T03:26:42;3.22;99.99
75899;DHT22;64576;50.460;4.866;2024-03-07T03:29:08;3.24;99.99
75899;DHT22;64576;50.460;4.866;2024-03-07T03:31:35;3.05;99.99
75899;DHT22;64576;50.460;4.866;2024-03-07T03:34:00;3.18;99.99
75899;DHT22;64576;50.460;4.866;2024-03-07T03:36:26;3.24;99.99
75899;DHT22;64576;50.460;4.866;2024-03-07T03:38:53;3.20;99.99
75899;DHT22;64576;50.460;4.866;2024-03-07T03:41:18;3.05;99.99
75899;DHT22;64576;50.460;4.866;2024-03-07T03:43:44;2.86;99.99
75899;DHT22;64576;50.460;4.866;2024-03-07T03:46:10;2.66;99.99
75899;DHT22;64576;50.460;4.866;2024-03-07T03:48:37;2.90;99.99
75899;DHT22;64576;50.460;4.866;2024-03-07T03:51:03;2.83;99.99
75899;DHT22;64576;50.460;4.866;2024-03-07T03:53:28;2.73;99.99
75899;DHT22;64576;50.460;4.866;2024-03-07T03:55:53;2.59;99.99
75899;DHT22;64576;50.460;4.866;2024-03-07T03:58:19;2.57;99.99
75899;DHT22;64576;50.460;4.866;2024-03-07T04:00:44;2.55;99.99
75899;DHT22;64576;50.460;4.866;2024-03-07T04:03:09;2.59;99.99
75899;DHT22;64576;50.460;4.866;2024-03-07T04:05:35;2.56;99.99
75899;DHT22;64576;50.460;4.866;2024-03-07T04:08:00;2.34;99.99
75899;DHT22;64576;50.460;4.866;2024-03-07T04:10:27;2.25;99.99
75899;DHT22;64576;50.460;4.866;2024-03-07T04:12:52;2.34;99.99
75899;DHT22;64576;50.460;4.866;2024-03-07T04:15:17;2.29;99.99
75899;DHT22;64576;50.460;4.866;2024-03-07T04:17:43;2.49;99.99
75899;DHT22;64576;50.460;4.866;2024-03-07T04:20:10;2.53;99.99
75899;DHT22;64576;50.460;4.866;2024-03-07T04:22:36;2.63;99.99
75899;DHT22;64576;50.460;4.866;2024-03-07T04:25:06;2.46;99.99
75899;DHT22;64576;50.460;4.866;2024-03-07T04:27:35;2.48;99.99
75899;DHT22;64576;50.460;4.866;2024-03-07T04:30:06;2.44;99.99
75899;DHT22;64576;50.460;4.866;2024-03-07T04:32:32;2.65;99.99
75899;DHT22;64576;50.460;4.866;2024-03-07T04:34:59;2.73;99.99
75899;DHT22;64576;50.460;4.866;2024-03-07T04:37:25;2.76;99.99
75899;DHT22;64576;50.460;4.866;2024-03-07T04:39:52;2.67;99.99
75899;DHT22;64576;50.460;4.866;2024-03-07T04:42:18;2.52;99.99
75899;DHT22;64576;50.460;4.866;2024-03-07T04:44:43;2.53;99.99
75899;DHT22;64576;50.460;4.866;2024-03-07T04:47:08;2.45;99.99
75899;DHT22;64576;50.460;4.866;2024-03-07T04:49:34;2.41;99.99
75899;DHT22;64576;50.460;4.866;2024-03-07T04:52:00;2.34;99.99
75899;DHT22;64576;50.460;4.866;2024-03-07T04:54:27;2.41;99.99
75899;DHT22;64576;50.460;4.866;2024-03-07T04:56:53;2.42;99.99
75899;DHT22;64576;50.460;4.866;2024-03-07T04:59:20;2.57;99.99
75899;DHT22;64576;50.460;4.866;2024-03-07T05:01:47;2.60;99.99
75899;DHT22;64576;50.460;4.866;2024-03-07T05:04:13;2.66;99.99
75899;DHT22;64576;50.460;4.866;2024-03-07T05:06:40;2.57;99.99
75899;DHT22;64576;50.460;4.866;2024-03-07T05:09:07;2.48;99.99
75899;DHT22;64576;50.460;4.866;2024-03-07T05:11:33;2.45;99.99
75899;DHT22;64576;50.460;4.866;2024-03-07T05:13:59;2.41;99.99
75899;DHT22;64576;50.460;4.866;2024-03-07T05:16:25;2.45;99.99
75899;DHT22;64576;50.460;4.866;2024-03-07T05:18:51;2.50;99.99
75899;DHT22;64576;50.460;4.866;2024-03-07T05:21:18;2.60;99.99
75899;DHT22;64576;50.460;4.866;2024-03-07T05:24:02;2.48;99.99
75899;DHT22;64576;50.460;4.866;2024-03-07T05:26:28;2.34;99.99
75899;DHT22;64576;50.460;4.866;2024-03-07T05:29:02;2.38;99.99
75899;DHT22;64576;50.460;4.866;2024-03-07T05:31:31;2.45;99.99
75899;DHT22;64576;50.460;4.866;2024-03-07T05:34:00;2.55;99.99
75899;DHT22;64576;50.460;4.866;2024-03-07T05:36:26;2.55;99.99
75899;DHT22;64576;50.460;4.866;2024-03-07T05:38:51;2.63;99.99
75899;DHT22;64576;50.460;4.866;2024-03-07T05:41:17;2.56;99.99
75899;DHT22;64576;50.460;4.866;2024-03-07T05:43:42;2.42;99.99
75899;DHT22;64576;50.460;4.866;2024-03-07T05:46:09;2.36;99.99
75899;DHT22;64576;50.460;4.866;2024-03-07T05:48:36;2.24;99.99
75899;DHT22;64576;50.460;4.866;2024-03-07T05:51:02;2.24;99.99
75899;DHT22;64576;50.460;4.866;2024-03-07T05:53:27;2.22;99.99
75899;DHT22;64576;50.460;4.866;2024-03-07T05:55:53;2.27;99.99
75899;DHT22;64576;50.460;4.866;2024-03-07T05:58:19;2.28;99.99
75899;DHT22;64576;50.460;4.866;2024-03-07T06:00:47;2.22;99.99
75899;DHT22;64576;50.460;4.866;2024-03-07T06:03:16;2.35;99.99
75899;DHT22;64576;50.460;4.866;2024-03-07T06:05:43;2.35;99.99
75899;DHT22;64576;50.460;4.866;2024-03-07T06:08:09;2.27;99.99
75899;DHT22;64576;50.460;4.866;2024-03-07T06:10:34;2.20;99.99
75899;DHT22;64576;50.460;4.866;2024-03-07T06:12:59;2.24;99.99
75899;DHT22;64576;50.460;4.866;2024-03-07T06:15:25;2.25;99.99
75899;DHT22;64576;50.460;4.866;2024-03-07T06:17:50;2.21;99.99
75899;DHT22;64576;50.460;4.866;2024-03-07T06:20:15;2.28;99.99
75899;DHT22;64576;50.460;4.866;2024-03-07T06:22:50;2.32;99.99
75899;DHT22;64576;50.460;4.866;2024-03-07T06:25:17;2.27;99.99
75899;DHT22;64576;50.460;4.866;2024-03-07T06:27:46;2.31;99.99
75899;DHT22;64576;50.460;4.866;2024-03-07T06:30:18;2.36;99.99
75899;DHT22;64576;50.460;4.866;2024-03-07T06:32:46;2.32;99.99
75899;DHT22;64576;50.460;4.866;2024-03-07T06:35:11;2.31;99.99
75899;DHT22;64576;50.460;4.866;2024-03-07T06:37:37;2.49;99.99
75899;DHT22;64576;50.460;4.866;2024-03-07T06:40:03;2.46;99.99
75899;DHT22;64576;50.460;4.866;2024-03-07T06:42:34;2.41;99.99
75899;DHT22;64576;50.460;4.866;2024-03-07T06:45:00;2.62;99.99
75899;DHT22;64576;50.460;4.866;2024-03-07T06:47:25;2.72;99.99
75899;DHT22;64576;50.460;4.866;2024-03-07T06:49:51;2.86;99.99
75899;DHT22;64576;50.460;4.866;2024-03-07T06:52:17;2.99;99.99
75899;DHT22;64576;50.460;4.866;2024-03-07T06:54:43;3.14;99.99
75899;DHT22;64576;50.460;4.866;2024-03-07T06:57:09;3.31;99.99
75899;DHT22;64576;50.460;4.866;2024-03-07T06:59:34;3.43;99.99
75899;DHT22;64576;50.460;4.866;2024-03-07T07:02:01;3.63;99.99
75899;DHT22;64576;50.460;4.866;2024-03-07T07:04:27;3.66;99.99
75899;DHT22;64576;50.460;4.866;2024-03-07T07:07:08;3.91;99.99
75899;DHT22;64576;50.460;4.866;2024-03-07T07:09:38;3.86;99.99
75899;DHT22;64576;50.460;4.866;2024-03-07T07:12:03;4.25;99.99
75899;DHT22;64576;50.460;4.866;2024-03-07T07:14:29;4.21;99.99
75899;DHT22;64576;50.460;4.866;2024-03-07T07:16:55;4.42;99.99
75899;DHT22;64576;50.460;4.866;2024-03-07T07:19:22;4.79;99.99
75899;DHT22;64576;50.460;4.866;2024-03-07T07:21:47;5.04;99.99
75899;DHT22;64576;50.460;4.866;2024-03-07T07:24:14;5.08;99.99
75899;DHT22;64576;50.460;4.866;2024-03-07T07:26:40;5.13;99.99
75899;DHT22;64576;50.460;4.866;2024-03-07T07:29:05;5.21;99.99
75899;DHT22;64576;50.460;4.866;2024-03-07T07:31:31;5.20;99.99
75899;DHT22;64576;50.460;4.866;2024-03-07T07:33:57;5.34;99.53
75899;DHT22;64576;50.460;4.866;2024-03-07T07:36:23;5.36;99.55
75899;DHT22;64576;50.460;4.866;2024-03-07T07:38:48;5.08;99.99
75899;DHT22;64576;50.460;4.866;2024-03-07T07:41:13;5.16;99.99
75899;DHT22;64576;50.460;4.866;2024-03-07T07:43:40;5.34;99.79
75899;DHT22;64576;50.460;4.866;2024-03-07T07:46:06;5.63;98.72
75899;DHT22;64576;50.460;4.866;2024-03-07T07:48:31;5.25;99.35
75899;DHT22;64576;50.460;4.866;2024-03-07T07:50:56;5.06;99.99
75899;DHT22;64576;50.460;4.866;2024-03-07T07:53:22;5.28;99.40
75899;DHT22;64576;50.460;4.866;2024-03-07T07:55:47;5.63;98.21
75899;DHT22;64576;50.460;4.866;2024-03-07T07:58:14;5.21;99.21
75899;DHT22;64576;50.460;4.866;2024-03-07T08:00:39;5.20;98.67
75899;DHT22;64576;50.460;4.866;2024-03-07T08:03:08;5.52;98.20
75899;DHT22;64576;50.460;4.866;2024-03-07T08:05:35;5.86;96.92
75899;DHT22;64576;50.460;4.866;2024-03-07T08:08:05;5.96;96.67
75899;DHT22;64576;50.460;4.866;2024-03-07T08:10:32;6.25;95.92
75899;DHT22;64576;50.460;4.866;2024-03-07T08:12:58;6.66;94.56
75899;DHT22;64576;50.460;4.866;2024-03-07T08:15:25;6.96;94.00
75899;DHT22;64576;50.460;4.866;2024-03-07T08:17:51;6.99;92.48
75899;DHT22;64576;50.460;4.866;2024-03-07T08:20:19;7.04;93.27
75899;DHT22;64576;50.460;4.866;2024-03-07T08:22:46;7.30;92.54
75899;DHT22;64576;50.460;4.866;2024-03-07T08:25:13;7.66;90.30
75899;DHT22;64576;50.460;4.866;2024-03-07T08:27:42;7.98;89.15
75899;DHT22;64576;50.460;4.866;2024-03-07T08:30:09;8.46;89.04
75899;DHT22;64576;50.460;4.866;2024-03-07T08:32:48;7.75;90.66
75899;DHT22;64576;50.460;4.866;2024-03-07T08:35:14;7.90;89.84
75899;DHT22;64576;50.460;4.866;2024-03-07T08:37:42;8.21;89.41
75899;DHT22;64576;50.460;4.866;2024-03-07T08:40:08;9.23;86.57
75899;DHT22;64576;50.460;4.866;2024-03-07T08:42:36;8.59;86.60
75899;DHT22;64576;50.460;4.866;2024-03-07T08:45:03;8.99;85.93
75899;DHT22;64576;50.460;4.866;2024-03-07T08:47:33;9.01;88.41
75899;DHT22;64576;50.460;4.866;2024-03-07T08:49:59;8.44;87.39
75899;DHT22;64576;50.460;4.866;2024-03-07T08:52:25;8.49;88.36
75899;DHT22;64576;50.460;4.866;2024-03-07T08:54:50;7.73;89.71
75899;DHT22;64576;50.460;4.866;2024-03-07T08:57:15;9.11;86.43
75899;DHT22;64576;50.460;4.866;2024-03-07T08:59:43;8.69;86.79
75899;DHT22;64576;50.460;4.866;2024-03-07T09:02:09;8.31;87.77
75899;DHT22;64576;50.460;4.866;2024-03-07T09:04:44;9.26;86.67
75899;DHT22;64576;50.460;4.866;2024-03-07T09:07:11;8.90;85.98
75899;DHT22;64576;50.460;4.866;2024-03-07T09:09:38;8.62;87.39
75899;DHT22;64576;50.460;4.866;2024-03-07T09:12:03;9.76;86.85
75899;DHT22;64576;50.460;4.866;2024-03-07T09:14:30;11.02;81.55
75899;DHT22;64576;50.460;4.866;2024-03-07T09:16:56;12.00;79.27
75899;DHT22;64576;50.460;4.866;2024-03-07T09:19:22;12.10;77.77
75899;DHT22;64576;50.460;4.866;2024-03-07T09:21:51;12.07;77.62
75899;DHT22;64576;50.460;4.866;2024-03-07T09:24:18;12.44;76.35
75899;DHT22;64576;50.460;4.866;2024-03-07T09:26:46;12.36;76.24
75899;DHT22;64576;50.460;4.866;2024-03-07T09:29:12;13.08;75.16
75899;DHT22;64576;50.460;4.866;2024-03-07T09:31:38;12.78;76.73
75899;DHT22;64576;50.460;4.866;2024-03-07T09:34:05;13.02;75.49
75899;DHT22;64576;50.460;4.866;2024-03-07T09:36:30;12.74;76.53
75899;DHT22;64576;50.460;4.866;2024-03-07T09:38:56;13.42;75.96
75899;DHT22;64576;50.460;4.866;2024-03-07T09:41:23;13.23;75.99
75899;DHT22;64576;50.460;4.866;2024-03-07T09:43:52;13.78;75.38
75899;DHT22;64576;50.460;4.866;2024-03-07T09:46:24;13.44;73.35
75899;DHT22;64576;50.460;4.866;2024-03-07T09:48:50;12.75;76.08
75899;DHT22;64576;50.460;4.866;2024-03-07T09:51:21;12.53;75.53
75899;DHT22;64576;50.460;4.866;2024-03-07T09:53:49;13.03;75.77
75899;DHT22;64576;50.460;4.866;2024-03-07T09:56:17;13.36;74.58
75899;DHT22;64576;50.460;4.866;2024-03-07T09:58:44;13.40;75.66
75899;DHT22;64576;50.460;4.866;2024-03-07T10:01:12;14.51;72.18
75899;DHT22;64576;50.460;4.866;2024-03-07T10:03:43;14.06;71.87
75899;DHT22;64576;50.460;4.866;2024-03-07T10:06:10;15.30;71.06
75899;DHT22;64576;50.460;4.866;2024-03-07T10:08:35;15.35;70.73
75899;DHT22;64576;50.460;4.866;2024-03-07T10:11:02;14.96;69.97
75899;DHT22;64576;50.460;4.866;2024-03-07T10:13:28;13.70;73.29
75899;DHT22;64576;50.460;4.866;2024-03-07T10:15:54;12.54;76.91
75899;DHT22;64576;50.460;4.866;2024-03-07T10:18:25;14.01;73.34
75899;DHT22;64576;50.460;4.866;2024-03-07T10:20:53;14.47;70.79
75899;DHT22;64576;50.460;4.866;2024-03-07T10:23:19;14.13;72.59
75899;DHT22;64576;50.460;4.866;2024-03-07T10:25:50;14.09;70.21
75899;DHT22;64576;50.460;4.866;2024-03-07T10:28:16;16.08;69.94
75899;DHT22;64576;50.460;4.866;2024-03-07T10:30:43;16.09;67.46
75899;DHT22;64576;50.460;4.866;2024-03-07T10:33:13;14.16;70.84
75899;DHT22;64576;50.460;4.866;2024-03-07T10:35:39;13.30;73.02
75899;DHT22;64576;50.460;4.866;2024-03-07T10:38:04;14.33;73.34
75899;DHT22;64576;50.460;4.866;2024-03-07T10:40:32;16.88;67.94
75899;DHT22;64576;50.460;4.866;2024-03-07T10:42:58;17.77;65.18
75899;DHT22;64576;50.460;4.866;2024-03-07T10:45:29;15.09;67.13
75899;DHT22;64576;50.460;4.866;2024-03-07T10:47:58;14.30;70.36
75899;DHT22;64576;50.460;4.866;2024-03-07T10:56:46;15.01;67.01
75899;DHT22;64576;50.460;4.866;2024-03-07T10:59:17;14.25;67.67
75899;DHT22;64576;50.460;4.866;2024-03-07T11:01:58;14.57;65.33
75899;DHT22;64576;50.460;4.866;2024-03-07T11:04:24;12.51;70.79
75899;DHT22;64576;50.460;4.866;2024-03-07T11:06:50;13.82;71.22
75899;DHT22;64576;50.460;4.866;2024-03-07T11:09:16;15.38;68.92
75899;DHT22;64576;50.460;4.866;2024-03-07T11:11:48;16.48;65.53
75899;DHT22;64576;50.460;4.866;2024-03-07T11:14:14;18.07;62.19
75899;DHT22;64576;50.460;4.866;2024-03-07T11:16:42;17.63;60.46
75899;DHT22;64576;50.460;4.866;2024-03-07T11:19:27;14.23;67.77
75899;DHT22;64576;50.460;4.866;2024-03-07T11:21:56;15.54;67.15
75899;DHT22;64576;50.460;4.866;2024-03-07T11:24:29;15.44;63.74
75899;DHT22;64576;50.460;4.866;2024-03-07T11:26:58;15.09;66.96
75899;DHT22;64576;50.460;4.866;2024-03-07T11:29:48;16.22;64.73
75899;DHT22;64576;50.460;4.866;2024-03-07T11:32:18;15.23;64.21
75899;DHT22;64576;50.460;4.866;2024-03-07T11:34:46;17.12;63.70
75899;DHT22;64576;50.460;4.866;2024-03-07T11:37:37;14.78;61.97
75899;DHT22;64576;50.460;4.866;2024-03-07T11:40:07;15.12;63.36
75899;DHT22;64576;50.460;4.866;2024-03-07T11:42:34;14.92;61.38
75899;DHT22;64576;50.460;4.866;2024-03-07T11:45:02;16.53;57.37
75899;DHT22;64576;50.460;4.866;2024-03-07T11:47:38;17.45;58.05
75899;DHT22;64576;50.460;4.866;2024-03-07T11:50:04;15.40;58.03
75899;DHT22;64576;50.460;4.866;2024-03-07T11:52:33;17.59;57.26
75899;DHT22;64576;50.460;4.866;2024-03-07T11:55:02;15.26;59.08
75899;DHT22;64576;50.460;4.866;2024-03-07T11:57:30;14.66;59.56
75899;DHT22;64576;50.460;4.866;2024-03-07T11:59:59;16.21;59.56
75899;DHT22;64576;50.460;4.866;2024-03-07T12:02:33;15.40;60.51
75899;DHT22;64576;50.460;4.866;2024-03-07T12:04:59;14.48;60.90
75899;DHT22;64576;50.460;4.866;2024-03-07T12:07:26;13.06;64.38
75899;DHT22;64576;50.460;4.866;2024-03-07T12:09:52;13.54;65.24
75899;DHT22;64576;50.460;4.866;2024-03-07T12:12:21;15.57;60.97
75899;DHT22;64576;50.460;4.866;2024-03-07T12:14:48;14.64;60.44
75899;DHT22;64576;50.460;4.866;2024-03-07T12:17:14;14.25;62.05
75899;DHT22;64576;50.460;4.866;2024-03-07T12:19:41;16.12;57.11
75899;DHT22;64576;50.460;4.866;2024-03-07T12:22:11;15.80;59.62
75899;DHT22;64576;50.460;4.866;2024-03-07T12:24:40;15.83;59.25
75899;DHT22;64576;50.460;4.866;2024-03-07T12:27:08;14.96;61.00
75899;DHT22;64576;50.460;4.866;2024-03-07T12:29:35;14.91;60.44
75899;DHT22;64576;50.460;4.866;2024-03-07T12:32:02;14.87;60.03
75899;DHT22;64576;50.460;4.866;2024-03-07T12:34:28;14.85;60.97
75899;DHT22;64576;50.460;4.866;2024-03-07T12:36:55;14.30;62.78
75899;DHT22;64576;50.460;4.866;2024-03-07T12:39:22;15.38;59.84
75899;DHT22;64576;50.460;4.866;2024-03-07T12:41:56;16.26;57.59
75899;DHT22;64576;50.460;4.866;2024-03-07T12:44:21;15.74;61.00
75899;DHT22;64576;50.460;4.866;2024-03-07T12:46:48;16.39;60.70
75899;DHT22;64576;50.460;4.866;2024-03-07T12:49:16;17.96;59.85
75899;DHT22;64576;50.460;4.866;2024-03-07T12:51:42;17.96;58.71
75899;DHT22;64576;50.460;4.866;2024-03-07T12:54:08;15.88;61.47
75899;DHT22;64576;50.460;4.866;2024-03-07T12:56:35;16.01;62.69
75899;DHT22;64576;50.460;4.866;2024-03-07T12:59:03;13.47;68.40
75899;DHT22;64576;50.460;4.866;2024-03-07T13:01:29;14.53;66.85
75899;DHT22;64576;50.460;4.866;2024-03-07T13:03:55;15.78;63.76
75899;DHT22;64576;50.460;4.866;2024-03-07T13:06:21;14.46;65.35
75899;DHT22;64576;50.460;4.866;2024-03-07T13:08:55;14.47;64.55
75899;DHT22;64576;50.460;4.866;2024-03-07T13:11:22;16.14;63.63
75899;DHT22;64576;50.460;4.866;2024-03-07T13:13:48;14.48;62.89
75899;DHT22;64576;50.460;4.866;2024-03-07T13:16:14;12.85;69.31
75899;DHT22;64576;50.460;4.866;2024-03-07T13:18:40;13.57;68.26
75899;DHT22;64576;50.460;4.866;2024-03-07T13:21:05;12.02;71.76
75899;DHT22;64576;50.460;4.866;2024-03-07T13:23:32;13.20;70.18
75899;DHT22;64576;50.460;4.866;2024-03-07T13:26:01;16.09;62.67
75899;DHT22;64576;50.460;4.866;2024-03-07T13:28:26;13.20;67.01
75899;DHT22;64576;50.460;4.866;2024-03-07T13:30:53;11.57;71.44
75899;DHT22;64576;50.460;4.866;2024-03-07T13:33:20;13.77;67.17
75899;DHT22;64576;50.460;4.866;2024-03-07T13:35:45;12.85;68.19
75899;DHT22;64576;50.460;4.866;2024-03-07T13:38:11;14.63;66.67
75899;DHT22;64576;50.460;4.866;2024-03-07T13:40:39;14.30;64.78
75899;DHT22;64576;50.460;4.866;2024-03-07T13:43:05;13.98;64.87
75899;DHT22;64576;50.460;4.866;2024-03-07T13:45:35;14.56;64.26
75899;DHT22;64576;50.460;4.866;2024-03-07T13:48:09;15.40;63.61
75899;DHT22;64576;50.460;4.866;2024-03-07T13:50:36;14.83;63.73
75899;DHT22;64576;50.460;4.866;2024-03-07T13:53:03;15.97;60.74
75899;DHT22;64576;50.460;4.866;2024-03-07T13:58:53;15.19;61.45
75899;DHT22;64576;50.460;4.866;2024-03-07T14:04:58;13.65;63.16
75899;DHT22;64576;50.460;4.866;2024-03-07T14:08:01;15.53;60.62
75899;DHT22;64576;50.460;4.866;2024-03-07T14:11:08;14.94;61.03
75899;DHT22;64576;50.460;4.866;2024-03-07T14:14:21;15.77;58.90
75899;DHT22;64576;50.460;4.866;2024-03-07T14:22:53;13.54;64.16
75899;DHT22;64576;50.460;4.866;2024-03-07T14:30:54;13.42;63.69
75899;DHT22;64576;50.460;4.866;2024-03-07T14:33:46;14.61;63.45
75899;DHT22;64576;50.460;4.866;2024-03-07T14:36:13;12.43;66.07
75899;DHT22;64576;50.460;4.866;2024-03-07T14:38:56;11.40;68.35
75899;DHT22;64576;50.460;4.866;2024-03-07T14:41:43;13.15;66.20
75899;DHT22;64576;50.460;4.866;2024-03-07T14:44:10;13.20;65.54
75899;DHT22;64576;50.460;4.866;2024-03-07T14:46:36;13.61;64.17
75899;DHT22;64576;50.460;4.866;2024-03-07T14:49:02;12.91;65.61
75899;DHT22;64576;50.460;4.866;2024-03-07T14:51:28;11.99;66.89
75899;DHT22;64576;50.460;4.866;2024-03-07T14:53:53;11.95;66.61
75899;DHT22;64576;50.460;4.866;2024-03-07T14:56:18;12.29;67.21
75899;DHT22;64576;50.460;4.866;2024-03-07T14:58:45;12.09;67.95
75899;DHT22;64576;50.460;4.866;2024-03-07T15:01:12;11.57;68.90
75899;DHT22;64576;50.460;4.866;2024-03-07T15:03:38;11.83;69.00
75899;DHT22;64576;50.460;4.866;2024-03-07T15:06:04;12.02;68.42
75899;DHT22;64576;50.460;4.866;2024-03-07T15:08:33;11.88;67.75
75899;DHT22;64576;50.460;4.866;2024-03-07T15:11:10;11.67;69.21
75899;DHT22;64576;50.460;4.866;2024-03-07T15:13:42;11.68;69.80
75899;DHT22;64576;50.460;4.866;2024-03-07T15:16:08;11.58;69.33
75899;DHT22;64576;50.460;4.866;2024-03-07T15:18:33;11.57;69.06
75899;DHT22;64576;50.460;4.866;2024-03-07T15:20:59;10.62;71.62
75899;DHT22;64576;50.460;4.866;2024-03-07T15:23:25;9.75;74.22
75899;DHT22;64576;50.460;4.866;2024-03-07T15:25:50;9.58;75.08
75899;DHT22;64576;50.460;4.866;2024-03-07T15:28:16;9.85;74.90
75899;DHT22;64576;50.460;4.866;2024-03-07T15:30:41;9.79;74.84
75899;DHT22;64576;50.460;4.866;2024-03-07T15:33:07;9.86;75.09
75899;DHT22;64576;50.460;4.866;2024-03-07T15:35:33;9.51;75.12
75899;DHT22;64576;50.460;4.866;2024-03-07T15:38:00;9.48;75.24
75899;DHT22;64576;50.460;4.866;2024-03-07T15:40:26;9.37;75.44
75899;DHT22;64576;50.460;4.866;2024-03-07T15:42:55;9.63;75.28
75899;DHT22;64576;50.460;4.866;2024-03-07T15:45:25;9.54;75.20
75899;DHT22;64576;50.460;4.866;2024-03-07T15:47:52;9.56;75.26
75899;DHT22;64576;50.460;4.866;2024-03-07T15:50:18;9.38;75.38
75899;DHT22;64576;50.460;4.866;2024-03-07T15:52:45;9.42;75.00
75899;DHT22;64576;50.460;4.866;2024-03-07T15:55:11;9.51;75.28
75899;DHT22;64576;50.460;4.866;2024-03-07T15:57:42;9.54;75.28
75899;DHT22;64576;50.460;4.866;2024-03-07T16:00:09;9.48;75.04
75899;DHT22;64576;50.460;4.866;2024-03-07T16:03:00;9.49;75.29
75899;DHT22;64576;50.460;4.866;2024-03-07T16:05:27;9.38;74.74
75899;DHT22;64576;50.460;4.866;2024-03-07T16:07:54;9.39;75.19